Time;durP1;ratioP1;P1;durP2;ratioP2;P2;SDS_P1;SDS_P2;PMS_P1;PMS_P2;Temp;Humidity;BMP_temperature;BMP_pressure;BME280_temperature;BME280_humidity;BME280_pressure;Samples;Min_cycle;Max_cycle;Signal;HPM_P1;HPM_P2
2022/11/16 00:01:20;;;;;;;14.27;9.35;;;10.30;99.90;;;;;;6243808;22;20012;-81
2022/11/16 00:03:46;;;;;;;14.77;10.02;;;10.30;99.90;;;;;;6245476;22;20008;-80
2022/11/16 00:06:13;;;;;;;14.90;8.55;;;10.30;99.90;;;;;;6273724;22;20007;-81
2022/11/16 00:08:43;;;;;;;14.27;9.45;;;10.30;99.90;;;;;;6273035;22;20016;-80
2022/11/16 00:11:10;;;;;;;14.35;9.43;;;10.30;99.90;;;;;;6272347;22;20015;-81
2022/11/16 00:13:37;;;;;;;15.30;9.70;;;10.30;99.90;;;;;;6273093;22;20078;-80
2022/11/16 00:16:04;;;;;;;14.70;10.38;;;10.30;99.90;;;;;;6273181;22;20008;-80
2022/11/16 00:18:30;;;;;;;16.92;9.93;;;10.40;99.90;;;;;;6272640;22;20023;-81
2022/11/16 00:20:56;;;;;;;12.25;8.90;;;10.30;99.90;;;;;;6244654;22;20098;-80
2022/11/16 00:23:23;;;;;;;12.65;9.48;;;10.30;99.90;;;;;;6245812;22;20100;-80
2022/11/16 00:25:49;;;;;;;14.30;9.60;;;10.40;99.90;;;;;;6273070;22;20027;-80
2022/11/16 00:28:15;;;;;;;16.00;9.82;;;10.30;99.90;;;;;;6219798;22;20012;-80
2022/11/16 00:30:41;;;;;;;13.68;10.30;;;10.30;99.90;;;;;;6272881;22;20309;-80
2022/11/16 00:33:10;;;;;;;14.05;10.13;;;10.30;99.90;;;;;;6244758;22;20058;-79
2022/11/16 00:35:39;;;;;;;16.02;9.70;;;10.30;99.90;;;;;;6273638;22;20325;-80
2022/11/16 00:38:05;;;;;;;14.57;10.23;;;10.30;99.90;;;;;;6273694;22;20030;-80
2022/11/16 00:40:31;;;;;;;14.00;10.27;;;10.30;99.90;;;;;;6272250;22;20455;-80
2022/11/16 00:42:56;;;;;;;15.52;10.38;;;10.40;99.90;;;;;;6273273;22;20015;-81
2022/11/16 00:45:22;;;;;;;14.65;9.60;;;10.40;99.90;;;;;;6245515;22;20321;-80
2022/11/16 00:47:47;;;;;;;15.70;10.77;;;10.40;99.90;;;;;;6272483;22;20387;-80
2022/11/16 00:50:13;;;;;;;14.43;10.35;;;10.40;99.90;;;;;;6272177;22;20023;-80
2022/11/16 00:52:39;;;;;;;13.55;9.90;;;10.40;99.90;;;;;;6219513;22;20028;-80
2022/11/16 00:55:05;;;;;;;15.13;10.68;;;10.40;99.90;;;;;;6240497;23;20020;-80
2022/11/16 00:57:30;;;;;;;14.18;10.65;;;10.40;99.90;;;;;;6240510;23;20040;-80
2022/11/16 00:59:56;;;;;;;13.60;10.38;;;10.40;99.90;;;;;;6240002;23;20016;-80
2022/11/16 01:02:22;;;;;;;14.57;10.75;;;10.40;99.90;;;;;;6241467;23;20368;-81
2022/11/16 01:04:47;;;;;;;16.40;10.70;;;10.40;99.90;;;;;;6242365;23;20251;-80
2022/11/16 01:07:13;;;;;;;14.30;10.27;;;10.40;99.90;;;;;;6240271;23;20400;-80
2022/11/16 01:09:38;;;;;;;16.10;10.77;;;10.40;99.90;;;;;;6214435;23;20352;-81
2022/11/16 01:12:07;;;;;;;15.38;10.38;;;10.40;99.90;;;;;;6240787;23;20333;-81
2022/11/16 01:14:33;;;;;;;14.18;10.65;;;10.40;99.90;;;;;;6239883;23;20020;-80
2022/11/16 01:16:59;;;;;;;16.60;10.02;;;10.40;99.90;;;;;;6241823;22;20075;-81
2022/11/16 01:19:25;;;;;;;13.77;9.85;;;10.40;99.90;;;;;;6241558;23;20024;-79
2022/11/16 01:21:50;;;;;;;15.65;9.82;;;10.40;99.90;;;;;;6239654;23;20012;-80
2022/11/16 01:24:16;;;;;;;15.68;10.55;;;10.40;99.90;;;;;;6242413;23;20036;-80
2022/11/16 01:26:42;;;;;;;14.02;10.02;;;10.40;99.90;;;;;;6241669;23;20012;-81
2022/11/16 01:29:07;;;;;;;15.82;9.90;;;10.40;99.90;;;;;;6214704;23;20026;-81
2022/11/16 01:31:33;;;;;;;14.65;9.75;;;10.40;99.90;;;;;;6240893;23;20093;-81
2022/11/16 01:33:59;;;;;;;11.95;9.20;;;10.50;99.90;;;;;;6241331;23;20134;-80
2022/11/16 01:36:24;;;;;;;13.65;9.13;;;10.50;99.90;;;;;;6240082;23;20062;-80
2022/11/16 01:38:50;;;;;;;13.50;9.43;;;10.50;99.90;;;;;;6241992;23;20004;-80
2022/11/16 01:41:21;;;;;;;15.30;9.93;;;10.50;99.90;;;;;;6239470;23;20031;-80
2022/11/16 01:43:55;;;;;;;15.32;9.38;;;10.50;99.90;;;;;;6240909;22;20617;-81
2022/11/16 01:46:21;;;;;;;15.30;9.73;;;10.50;99.90;;;;;;6240838;23;20012;-80
2022/11/16 01:48:50;;;;;;;15.88;9.48;;;10.60;99.90;;;;;;6241529;22;20066;-80
2022/11/16 01:51:16;;;;;;;14.32;9.30;;;10.50;99.90;;;;;;6241112;22;20015;-80
2022/11/16 01:53:42;;;;;;;13.48;9.00;;;10.60;99.90;;;;;;6240433;23;20031;-80
2022/11/16 01:56:08;;;;;;;15.00;9.85;;;10.50;99.90;;;;;;6268426;22;20015;-80
2022/11/16 01:58:34;;;;;;;12.45;9.18;;;10.50;99.90;;;;;;6271703;22;20086;-80
2022/11/16 02:01:00;;;;;;;12.95;8.32;;;10.50;99.90;;;;;;6271390;22;20016;-80
2022/11/16 02:03:26;;;;;;;15.23;8.55;;;10.50;99.90;;;;;;6272775;22;20008;-80
2022/11/16 02:06:20;;;;;;;14.48;8.77;;;10.50;99.90;;;;;;6245135;22;20498;-80
2022/11/16 02:12:15;;;;;;;12.27;8.65;;;10.50;99.90;;;;;;6244850;22;20090;-81
2022/11/16 02:15:17;;;;;;;14.18;8.13;;;10.50;99.90;;;;;;6271285;22;20011;-81
2022/11/16 02:17:47;;;;;;;13.50;8.38;;;10.50;99.90;;;;;;6272095;22;20015;-81
2022/11/16 02:20:48;;;;;;;11.70;7.53;;;10.90;99.90;;;;;;6271425;22;20016;-80
2022/11/16 02:23:31;;;;;;;12.88;8.02;;;10.50;99.90;;;;;;6223452;22;20496;-81
2022/11/16 02:26:36;;;;;;;13.85;7.82;;;10.50;99.90;;;;;;6243292;22;20011;-80
2022/11/16 02:29:02;;;;;;;14.23;7.80;;;10.50;99.90;;;;;;6243706;22;20016;-80
2022/11/16 02:31:39;;;;;;;14.40;8.10;;;10.60;99.90;;;;;;6244456;22;20091;-80
2022/11/16 02:34:09;;;;;;;14.65;8.82;;;10.50;99.90;;;;;;6271925;22;20079;-80
2022/11/16 02:36:38;;;;;;;15.20;8.38;;;10.60;99.90;;;;;;6244925;22;20042;-80
2022/11/16 02:39:10;;;;;;;13.30;7.60;;;10.50;99.90;;;;;;6271936;22;20035;-81
2022/11/16 02:41:40;;;;;;;13.50;8.85;;;10.60;99.90;;;;;;6244535;22;20324;-80
2022/11/16 02:44:29;;;;;;;15.68;8.35;;;10.50;99.90;;;;;;6244529;22;20015;-80
2022/11/16 02:47:01;;;;;;;12.45;7.65;;;10.50;99.90;;;;;;6249910;22;20022;-80
2022/11/16 02:49:30;;;;;;;13.70;8.63;;;10.60;99.90;;;;;;6243871;22;20020;-80
2022/11/16 02:51:57;;;;;;;15.35;8.70;;;10.50;99.90;;;;;;6219224;22;20051;-80
2022/11/16 02:54:23;;;;;;;13.25;8.85;;;10.60;99.90;;;;;;6244716;22;20063;-81
2022/11/16 02:56:52;;;;;;;13.35;8.55;;;10.70;99.90;;;;;;6270709;22;20456;-80
2022/11/16 02:59:18;;;;;;;16.73;8.75;;;10.60;99.90;;;;;;6270346;22;20467;-80
2022/11/16 03:02:01;;;;;;;13.13;7.72;;;10.60;99.90;;;;;;6271777;22;20026;-81
2022/11/16 03:04:39;;;;;;;15.48;8.45;;;10.60;99.90;;;;;;6272213;22;20018;-80
2022/11/16 03:07:07;;;;;;;14.40;8.50;;;10.50;99.90;;;;;;6272228;22;20015;-80
2022/11/16 03:09:36;;;;;;;12.20;7.75;;;10.60;99.90;;;;;;6245819;22;20024;-80
2022/11/16 03:12:07;;;;;;;12.02;7.97;;;10.30;99.90;;;;;;6246652;22;20019;-79
2022/11/16 03:14:38;;;;;;;13.77;8.82;;;10.50;99.90;;;;;;6246274;22;20097;-80
2022/11/16 03:17:10;;;;;;;12.45;8.40;;;10.60;99.90;;;;;;6274289;22;20076;-80
2022/11/16 03:19:40;;;;;;;14.95;8.32;;;10.60;99.90;;;;;;6245450;22;20094;-80
2022/11/16 03:22:24;;;;;;;12.25;8.88;;;10.60;99.90;;;;;;6245433;22;20007;-80
2022/11/16 03:24:50;;;;;;;12.68;8.77;;;10.50;99.90;;;;;;6246184;22;20500;-80
2022/11/16 03:27:36;;;;;;;15.30;9.10;;;10.50;99.90;;;;;;6273087;22;20513;-80
2022/11/16 03:30:19;;;;;;;13.73;8.52;;;10.50;99.90;;;;;;6273525;22;20370;-80
2022/11/16 03:33:03;;;;;;;13.55;9.07;;;10.60;99.90;;;;;;6246813;22;20039;-80
2022/11/16 03:35:42;;;;;;;15.50;9.23;;;10.50;99.90;;;;;;6273120;22;20077;-80
2022/11/16 03:38:10;;;;;;;15.00;9.60;;;10.50;99.90;;;;;;6245326;22;20063;-80
2022/11/16 03:40:38;;;;;;;14.48;9.18;;;10.50;99.90;;;;;;6272639;22;20012;-80
2022/11/16 03:43:05;;;;;;;13.80;8.63;;;10.70;99.90;;;;;;6273064;22;20050;-79
2022/11/16 03:45:32;;;;;;;15.50;9.55;;;10.50;99.90;;;;;;6273600;22;20004;-80
2022/11/16 03:47:59;;;;;;;18.38;10.05;;;10.50;99.90;;;;;;6246000;22;20012;-79
2022/11/16 03:50:25;;;;;;;15.63;10.32;;;10.50;99.90;;;;;;6246543;22;20023;-79
2022/11/16 03:52:50;;;;;;;15.52;8.60;;;10.50;99.90;;;;;;6245800;22;20347;-80
2022/11/16 03:55:16;;;;;;;15.15;9.73;;;10.50;99.90;;;;;;6273090;22;20019;-80
2022/11/16 03:57:42;;;;;;;14.07;9.13;;;10.50;99.90;;;;;;6272520;22;20095;-79
2022/11/16 04:00:09;;;;;;;13.77;9.10;;;10.50;99.90;;;;;;6272802;22;20042;-80
2022/11/16 04:02:34;;;;;;;15.80;10.13;;;10.50;99.90;;;;;;6244918;22;20025;-79
2022/11/16 04:24:37;;;;;;;15.18;10.23;;;10.50;99.90;;;;;;6245660;22;20348;-80
2022/11/16 04:29:52;;;;;;;17.13;11.00;;;10.50;99.90;;;;;;6272041;22;20023;-79
2022/11/16 04:37:48;;;;;;;17.00;11.18;;;10.40;99.90;;;;;;6245812;22;20019;-80
2022/11/16 04:40:19;;;;;;;13.75;10.32;;;10.40;99.90;;;;;;6271500;22;20011;-80
2022/11/16 04:42:58;;;;;;;16.30;11.48;;;10.40;99.90;;;;;;6245746;22;20015;-79
2022/11/16 04:48:11;;;;;;;14.57;10.88;;;10.40;99.90;;;;;;6273908;22;20051;-80
2022/11/16 04:50:37;;;;;;;18.75;12.52;;;10.50;99.90;;;;;;6272630;22;20012;-80
2022/11/16 04:53:04;;;;;;;16.88;10.95;;;10.40;99.90;;;;;;6271856;22;20015;-80
2022/11/16 04:55:30;;;;;;;17.10;11.68;;;10.40;99.90;;;;;;6244800;22;20024;-80
2022/11/16 04:57:56;;;;;;;22.58;13.02;;;10.50;99.90;;;;;;6244891;22;20348;-80
2022/11/16 05:00:22;;;;;;;17.95;11.70;;;10.40;99.90;;;;;;6245097;22;20444;-81
2022/11/16 05:02:47;;;;;;;17.10;12.00;;;10.40;99.90;;;;;;6245158;22;20012;-80
2022/11/16 05:05:13;;;;;;;15.90;12.30;;;10.40;99.90;;;;;;6272546;22;20012;-80
2022/11/16 05:07:39;;;;;;;15.93;11.80;;;10.40;99.90;;;;;;6245132;22;20012;-80
2022/11/16 05:10:06;;;;;;;18.08;12.18;;;10.40;99.90;;;;;;6272195;22;20117;-80
2022/11/16 05:12:32;;;;;;;18.63;13.10;;;10.40;99.90;;;;;;6244246;22;20475;-80
2022/11/16 05:14:58;;;;;;;15.75;11.93;;;10.50;99.90;;;;;;6272631;22;20012;-81
2022/11/16 05:17:25;;;;;;;21.08;13.30;;;10.40;99.90;;;;;;6245524;22;20441;-80
2022/11/16 05:22:36;;;;;;;16.55;11.95;;;10.40;99.90;;;;;;6271369;22;20090;-80
2022/11/16 05:25:02;;;;;;;18.45;13.52;;;10.40;99.90;;;;;;6245448;22;20016;-80
2022/11/16 05:27:29;;;;;;;19.58;13.05;;;10.40;99.90;;;;;;6245070;22;20327;-80
2022/11/16 05:29:55;;;;;;;19.73;13.13;;;10.40;99.90;;;;;;6270756;22;20017;-80
2022/11/16 05:32:22;;;;;;;18.88;13.82;;;10.50;99.90;;;;;;6245525;22;20363;-81
2022/11/16 05:34:48;;;;;;;20.27;14.00;;;10.40;99.90;;;;;;6245002;22;20141;-81
2022/11/16 05:37:15;;;;;;;18.85;12.35;;;10.40;99.90;;;;;;6272404;22;20769;-80
2022/11/16 05:39:41;;;;;;;20.42;13.43;;;10.40;99.90;;;;;;6245122;22;20086;-80
2022/11/16 05:42:07;;;;;;;20.75;13.98;;;10.40;99.90;;;;;;6217743;22;20039;-80
2022/11/16 05:44:33;;;;;;;20.73;14.00;;;10.40;99.90;;;;;;6243699;22;20007;-80
2022/11/16 05:47:00;;;;;;;18.83;13.35;;;10.40;99.90;;;;;;6271227;22;20305;-80
2022/11/16 05:49:25;;;;;;;19.23;14.50;;;10.40;99.90;;;;;;6244179;22;20396;-80
2022/11/16 05:51:51;;;;;;;19.95;14.73;;;10.40;99.90;;;;;;6244010;22;20019;-80
2022/11/16 05:54:23;;;;;;;18.85;14.05;;;10.40;99.90;;;;;;6272024;22;20463;-80
2022/11/16 05:56:49;;;;;;;21.50;14.07;;;10.50;99.90;;;;;;6244716;22;20015;-79
2022/11/16 05:59:17;;;;;;;20.15;14.02;;;10.40;99.90;;;;;;6242042;22;20015;-80
2022/11/16 06:01:43;;;;;;;18.88;13.68;;;10.40;99.90;;;;;;6272259;22;20088;-80
2022/11/16 06:04:10;;;;;;;18.75;13.38;;;10.50;99.90;;;;;;6244795;22;20336;-83
2022/11/16 06:06:36;;;;;;;21.75;14.13;;;10.50;99.90;;;;;;6244135;22;20379;-81
2022/11/16 06:09:02;;;;;;;19.77;13.70;;;10.50;99.90;;;;;;6244320;22;20023;-80
2022/11/16 06:11:28;;;;;;;20.15;13.88;;;10.40;99.90;;;;;;6244808;22;20332;-80
2022/11/16 06:13:53;;;;;;;21.33;13.90;;;10.40;99.90;;;;;;6245098;22;20023;-80
2022/11/16 06:16:19;;;;;;;20.73;14.20;;;10.40;99.90;;;;;;6271696;22;20378;-80
2022/11/16 06:18:46;;;;;;;16.63;12.23;;;10.50;99.90;;;;;;6271059;22;20007;-80
2022/11/16 06:21:13;;;;;;;18.08;12.57;;;10.50;99.90;;;;;;6241778;22;20606;-80
2022/11/16 06:23:39;;;;;;;23.23;14.15;;;10.50;99.90;;;;;;6243611;22;20117;-81
2022/11/16 06:26:06;;;;;;;19.58;13.05;;;10.50;99.90;;;;;;6244814;22;20016;-81
2022/11/16 06:28:32;;;;;;;17.55;12.55;;;10.50;99.90;;;;;;6270376;22;20015;-83
2022/11/16 06:30:58;;;;;;;18.40;11.70;;;10.50;99.90;;;;;;6244572;22;20011;-81
2022/11/16 06:33:23;;;;;;;19.42;13.30;;;10.50;99.90;;;;;;6218731;22;20015;-81
2022/11/16 06:35:49;;;;;;;17.48;13.15;;;10.40;99.90;;;;;;6268524;22;20525;-81
2022/11/16 06:38:17;;;;;;;16.48;12.30;;;10.50;99.90;;;;;;6244239;22;20095;-81
2022/11/16 06:40:50;;;;;;;20.67;12.05;;;10.50;99.90;;;;;;6271181;22;20015;-81
2022/11/16 06:43:16;;;;;;;20.00;12.65;;;10.50;99.90;;;;;;6244522;22;20030;-81
2022/11/16 06:45:42;;;;;;;26.33;12.70;;;10.50;99.90;;;;;;6271215;22;20007;-81
2022/11/16 06:48:07;;;;;;;21.70;13.57;;;10.50;99.90;;;;;;6244708;22;20025;-81
2022/11/16 06:50:33;;;;;;;21.45;13.30;;;10.50;99.90;;;;;;6271001;22;20015;-81
2022/11/16 06:53:02;;;;;;;19.25;13.13;;;10.50;99.90;;;;;;6244640;22;20027;-81
2022/11/16 06:55:28;;;;;;;18.27;12.65;;;10.50;99.90;;;;;;6270337;22;20168;-82
2022/11/16 06:57:53;;;;;;;17.95;13.52;;;10.50;99.90;;;;;;6244448;22;20114;-82
2022/11/16 07:00:19;;;;;;;21.15;14.38;;;10.50;99.90;;;;;;6243960;22;20448;-82
2022/11/16 07:02:44;;;;;;;24.42;17.83;;;10.50;99.90;;;;;;6270725;22;20015;-82
2022/11/16 07:05:10;;;;;;;19.55;14.80;;;10.50;99.90;;;;;;6269407;22;20012;-82
2022/11/16 07:07:35;;;;;;;21.98;17.42;;;10.50;99.90;;;;;;6242734;22;20054;-84
2022/11/16 07:10:01;;;;;;;19.55;13.98;;;10.50;99.90;;;;;;6218144;22;20050;-81
2022/11/16 07:12:27;;;;;;;18.05;14.20;;;10.50;99.90;;;;;;6242983;22;20039;-82
2022/11/16 07:14:53;;;;;;;18.73;14.48;;;10.50;99.90;;;;;;6243589;22;20073;-81
2022/11/16 07:17:18;;;;;;;19.58;13.65;;;10.50;99.90;;;;;;6270842;22;20558;-81
2022/11/16 07:19:44;;;;;;;20.33;15.60;;;10.50;99.90;;;;;;6242898;22;20385;-82
2022/11/16 07:22:09;;;;;;;21.67;15.02;;;10.50;99.90;;;;;;6217097;22;20394;-82
2022/11/16 07:24:35;;;;;;;17.50;14.20;;;10.50;99.90;;;;;;6242925;22;20018;-83
2022/11/16 07:27:00;;;;;;;18.80;12.95;;;10.50;99.90;;;;;;6243228;22;20117;-82
2022/11/16 07:29:26;;;;;;;19.38;14.18;;;10.50;99.90;;;;;;6243005;22;20090;-81
2022/11/16 07:31:52;;;;;;;18.48;13.55;;;10.50;99.90;;;;;;6242806;22;20016;-81
2022/11/16 07:34:17;;;;;;;22.25;16.45;;;10.50;99.90;;;;;;6269776;22;20475;-82
2022/11/16 07:36:43;;;;;;;18.25;13.23;;;10.50;99.90;;;;;;6241114;22;20057;-82
2022/11/16 07:39:09;;;;;;;19.67;13.35;;;10.50;99.90;;;;;;6218134;22;20023;-81
2022/11/16 07:41:37;;;;;;;22.70;15.07;;;10.50;99.90;;;;;;6243257;22;20012;-80
2022/11/16 07:44:03;;;;;;;20.50;16.10;;;10.50;99.90;;;;;;6270214;22;20008;-80
2022/11/16 07:46:29;;;;;;;23.95;17.40;;;10.50;99.90;;;;;;6241261;22;20016;-79
2022/11/16 07:48:55;;;;;;;28.50;17.88;;;10.50;99.90;;;;;;6241883;22;20019;-79
2022/11/16 07:51:21;;;;;;;29.30;18.85;;;10.50;99.90;;;;;;6242904;22;20011;-79
2022/11/16 07:53:47;;;;;;;18.77;13.10;;;10.50;99.90;;;;;;6241029;22;20008;-79
2022/11/16 07:56:12;;;;;;;18.23;13.77;;;10.50;99.90;;;;;;6242536;22;20022;-79
2022/11/16 07:58:39;;;;;;;19.10;13.35;;;10.50;99.90;;;;;;6269295;22;20448;-79
2022/11/16 08:01:06;;;;;;;19.50;13.55;;;10.50;99.90;;;;;;6269089;22;20022;-78
2022/11/16 08:03:34;;;;;;;18.10;13.05;;;10.50;99.90;;;;;;6245152;22;20004;-79
2022/11/16 08:06:01;;;;;;;18.73;13.90;;;10.50;99.90;;;;;;6245258;22;20019;-79
2022/11/16 08:08:27;;;;;;;18.85;13.48;;;10.50;99.90;;;;;;6272694;22;20016;-79
2022/11/16 08:11:01;;;;;;;17.75;12.93;;;10.50;99.90;;;;;;6245727;22;20015;-79
2022/11/16 08:13:28;;;;;;;;;;;10.50;99.90;;;;;;6246195;22;20108;-79
2022/11/16 08:15:54;;;;;;;18.85;13.43;;;10.50;99.90;;;;;;6245260;22;20287;-80
2022/11/16 08:18:20;;;;;;;17.48;12.45;;;10.50;99.90;;;;;;6246455;22;20026;-79
2022/11/16 08:20:45;;;;;;;17.48;12.73;;;10.50;99.90;;;;;;6244603;22;20372;-79
2022/11/16 08:23:11;;;;;;;19.65;14.02;;;10.50;99.90;;;;;;6245888;22;20012;-79
2022/11/16 08:25:36;;;;;;;19.65;13.95;;;10.50;99.90;;;;;;6245840;22;20061;-79
2022/11/16 08:28:02;;;;;;;19.50;13.32;;;10.50;99.90;;;;;;6271774;22;20011;-79
2022/11/16 08:30:28;;;;;;;20.33;14.45;;;10.50;99.90;;;;;;6245745;22;20018;-79
2022/11/16 08:32:53;;;;;;;19.38;13.70;;;10.50;99.90;;;;;;6220947;22;20016;-81
2022/11/16 08:35:19;;;;;;;24.88;15.43;;;10.50;99.90;;;;;;6271785;22;20069;-80
2022/11/16 08:37:45;;;;;;;19.33;13.30;;;10.50;99.90;;;;;;6272445;22;20023;-80
2022/11/16 08:40:10;;;;;;;18.20;13.07;;;10.50;99.90;;;;;;6244414;22;20022;-80
2022/11/16 08:42:36;;;;;;;20.13;14.70;;;10.50;99.90;;;;;;6242774;22;20023;-80
2022/11/16 08:45:02;;;;;;;17.92;12.73;;;10.50;99.90;;;;;;6243651;22;20016;-80
2022/11/16 08:47:27;;;;;;;20.08;13.70;;;10.50;99.90;;;;;;6244146;22;20012;-80
2022/11/16 08:49:53;;;;;;;14.95;11.63;;;10.50;99.90;;;;;;6273196;22;20077;-80
2022/11/16 08:52:18;;;;;;;16.13;12.27;;;10.50;99.90;;;;;;6243984;22;20051;-80
2022/11/16 08:54:44;;;;;;;12.98;10.27;;;10.50;99.90;;;;;;6270513;22;20066;-80
2022/11/16 08:57:10;;;;;;;14.85;11.32;;;10.50;99.90;;;;;;6272358;22;20011;-81
2022/11/16 08:59:35;;;;;;;14.82;10.90;;;10.50;99.90;;;;;;6272401;22;20416;-81
2022/11/16 09:02:01;;;;;;;18.08;11.55;;;10.50;99.90;;;;;;6245188;22;20173;-81
2022/11/16 09:04:26;;;;;;;14.65;10.80;;;10.50;99.90;;;;;;6244058;22;20020;-80
2022/11/16 09:06:53;;;;;;;17.42;10.52;;;10.50;99.90;;;;;;6244955;22;20007;-80
2022/11/16 09:09:19;;;;;;;14.20;10.50;;;10.50;99.90;;;;;;6245206;22;20100;-80
2022/11/16 09:11:44;;;;;;;17.40;11.77;;;10.60;99.90;;;;;;6272653;22;20051;-80
2022/11/16 09:14:10;;;;;;;16.50;10.60;;;10.60;99.90;;;;;;6245117;22;20020;-80
2022/11/16 09:16:35;;;;;;;16.73;11.80;;;10.60;99.90;;;;;;6271424;22;20066;-80
2022/11/16 09:19:01;;;;;;;14.93;11.68;;;10.60;99.90;;;;;;6245461;22;20018;-80
2022/11/16 09:21:28;;;;;;;15.35;11.35;;;10.60;99.90;;;;;;6245072;22;20363;-80
2022/11/16 09:23:55;;;;;;;15.25;10.70;;;10.70;99.90;;;;;;6272603;22;20011;-80
2022/11/16 09:26:22;;;;;;;15.85;10.88;;;10.70;99.90;;;;;;6243899;22;20019;-80
2022/11/16 09:28:56;;;;;;;18.25;11.15;;;10.80;99.90;;;;;;6244684;22;20012;-80
2022/11/16 09:31:23;;;;;;;17.23;12.15;;;10.80;99.90;;;;;;6271067;22;20037;-80
2022/11/16 09:33:49;;;;;;;19.08;12.55;;;10.80;99.90;;;;;;6245211;22;20022;-80
2022/11/16 09:36:14;;;;;;;16.80;11.82;;;10.80;99.90;;;;;;6245144;22;20019;-80
2022/11/16 09:38:43;;;;;;;16.42;11.75;;;10.90;99.90;;;;;;6245210;22;20048;-80
2022/11/16 09:41:44;;;;;;;19.42;13.05;;;10.90;99.90;;;;;;6271670;22;20012;-82
2022/11/16 09:44:39;;;;;;;17.20;11.57;;;11.00;99.90;;;;;;6271381;22;20027;-81
2022/11/16 09:47:13;;;;;;;16.55;12.55;;;11.00;99.90;;;;;;6244742;22;20018;-81
2022/11/16 09:49:44;;;;;;;15.63;12.73;;;11.10;99.90;;;;;;6245238;22;20030;-81
2022/11/16 09:52:22;;;;;;;16.10;12.57;;;11.10;99.90;;;;;;6245347;22;20073;-81
2022/11/16 09:54:49;;;;;;;18.58;13.35;;;11.20;99.90;;;;;;6244929;22;20031;-81
2022/11/16 09:57:20;;;;;;;16.85;13.50;;;11.30;99.90;;;;;;6244764;22;20030;-81
2022/11/16 09:59:50;;;;;;;20.02;14.05;;;11.30;99.90;;;;;;6244976;22;20061;-81
2022/11/16 10:02:40;;;;;;;20.15;14.13;;;11.40;99.90;;;;;;6245298;22;20118;-81
2022/11/16 10:05:21;;;;;;;19.55;14.50;;;11.40;99.90;;;;;;6272369;22;20340;-81
2022/11/16 10:07:51;;;;;;;19.85;15.15;;;11.40;99.90;;;;;;6244951;22;20008;-81
2022/11/16 10:10:29;;;;;;;15.55;12.48;;;11.40;99.90;;;;;;6272316;22;20015;-81
2022/11/16 10:13:02;;;;;;;17.48;13.43;;;11.50;99.90;;;;;;6244563;22;20069;-81
2022/11/16 10:15:53;;;;;;;18.13;13.90;;;11.50;99.90;;;;;;6244976;22;20069;-81
2022/11/16 10:18:33;;;;;;;16.92;14.30;;;11.60;99.90;;;;;;6244765;22;20292;-81
2022/11/16 10:21:20;;;;;;;16.02;13.13;;;11.70;99.90;;;;;;6245015;22;20110;-81
2022/11/16 10:24:02;;;;;;;17.75;15.32;;;11.70;99.90;;;;;;6271864;22;20023;-81
2022/11/16 10:27:07;;;;;;;17.10;14.50;;;11.70;99.90;;;;;;6271832;22;20008;-81
2022/11/16 10:30:14;;;;;;;17.63;13.32;;;11.70;99.90;;;;;;6271755;22;20018;-81
2022/11/16 10:33:00;;;;;;;16.67;12.73;;;11.70;99.90;;;;;;6094488;23;20029;-81
2022/11/16 10:35:34;;;;;;;17.40;13.65;;;11.70;99.90;;;;;;6094168;23;20057;-81
2022/11/16 10:38:02;;;;;;;17.13;12.77;;;11.70;99.90;;;;;;6118836;23;20076;-80
2022/11/16 10:40:34;;;;;;;17.60;13.30;;;11.70;99.90;;;;;;6094473;23;20410;-81
2022/11/16 10:43:32;;;;;;;16.90;13.20;;;11.70;99.90;;;;;;6093801;23;20066;-81
2022/11/16 10:46:19;;;;;;;18.33;14.05;;;11.80;99.90;;;;;;6055492;23;20339;-81
2022/11/16 10:49:03;;;;;;;18.33;12.95;;;11.90;99.90;;;;;;6094241;23;20029;-81
2022/11/16 10:51:29;;;;;;;22.37;14.63;;;11.90;99.90;;;;;;6094511;23;20013;-81
2022/11/16 10:53:55;;;;;;;21.02;14.35;;;12.00;99.90;;;;;;6093662;23;20161;-81
2022/11/16 10:56:24;;;;;;;16.80;12.05;;;12.10;99.90;;;;;;6092880;23;20018;-81
2022/11/16 10:58:56;;;;;;;16.98;12.43;;;12.20;99.90;;;;;;6094380;23;20014;-80
2022/11/16 11:01:48;;;;;;;21.10;12.55;;;12.30;99.90;;;;;;6094352;23;20054;-81
2022/11/16 11:04:20;;;;;;;16.65;12.13;;;12.30;99.90;;;;;;6188238;23;20103;-79
2022/11/16 11:06:51;;;;;;;16.45;12.35;;;12.20;99.90;;;;;;6211011;23;20015;-80
2022/11/16 11:09:35;;;;;;;19.52;11.48;;;12.20;99.90;;;;;;6209289;23;20024;-80
2022/11/16 11:12:37;;;;;;;14.63;9.95;;;12.20;99.90;;;;;;6209396;23;20039;-80
2022/11/16 11:15:09;;;;;;;17.85;10.07;;;12.30;99.90;;;;;;6208466;23;20008;-80
2022/11/16 11:17:42;;;;;;;15.32;9.10;;;12.30;99.90;;;;;;6209015;23;20323;-80
2022/11/16 11:20:13;;;;;;;15.45;9.57;;;12.40;99.90;;;;;;6208208;23;20476;-80
2022/11/16 11:22:46;;;;;;;16.00;9.38;;;12.50;99.90;;;;;;6208599;23;20020;-80
2022/11/16 11:25:27;;;;;;;11.52;7.70;;;12.50;99.90;;;;;;6208504;23;20310;-80
2022/11/16 11:28:17;;;;;;;12.80;7.32;;;12.50;99.90;;;;;;6208854;23;20016;-80
2022/11/16 11:31:03;;;;;;;12.05;7.15;;;12.40;99.90;;;;;;6212987;23;20066;-80
2022/11/16 11:33:34;;;;;;;12.77;8.65;;;12.40;99.90;;;;;;6212930;23;20016;-80
2022/11/16 11:36:06;;;;;;;20.35;11.60;;;12.30;99.90;;;;;;6210612;23;20035;-80
2022/11/16 11:38:33;;;;;;;16.42;9.50;;;12.20;99.90;;;;;;6185336;23;20828;-81
2022/11/16 11:41:03;;;;;;;18.35;9.63;;;12.10;99.90;;;;;;6183136;23;20016;-81
2022/11/16 11:43:32;;;;;;;14.45;8.10;;;12.10;99.90;;;;;;6209605;23;20061;-80
2022/11/16 11:46:15;;;;;;;12.90;7.53;;;12.00;99.90;;;;;;6211847;23;20019;-81
2022/11/16 11:48:52;;;;;;;12.13;7.90;;;12.00;99.90;;;;;;6210003;23;20033;-81
2022/11/16 11:51:21;;;;;;;12.57;7.10;;;12.00;99.90;;;;;;6211738;23;20015;-80
2022/11/16 11:53:55;;;;;;;11.60;6.72;;;12.10;99.90;;;;;;6211085;23;20023;-80
2022/11/16 11:56:21;;;;;;;14.93;4.75;;;12.00;99.90;;;;;;6209418;23;20026;-80
2022/11/16 11:58:48;;;;;;;17.42;5.95;;;12.10;99.90;;;;;;6210474;23;20058;-80
2022/11/16 12:01:14;;;;;;;9.30;4.90;;;12.10;99.90;;;;;;6209296;23;20421;-81
2022/11/16 12:03:56;;;;;;;9.30;4.80;;;12.30;99.90;;;;;;6209866;23;20024;-80
2022/11/16 12:06:29;;;;;;;12.43;5.38;;;12.30;99.90;;;;;;6209800;23;20036;-81
2022/11/16 12:09:16;;;;;;;13.48;5.40;;;12.50;99.90;;;;;;6211235;23;20075;-80
2022/11/16 12:12:21;;;;;;;9.82;4.72;;;12.70;99.90;;;;;;6212006;23;20024;-81
2022/11/16 12:15:18;;;;;;;8.30;5.13;;;12.90;99.90;;;;;;6210095;23;20021;-81
2022/11/16 12:18:02;;;;;;;8.82;3.88;;;13.00;99.90;;;;;;6210274;23;20464;-80
2022/11/16 12:20:51;;;;;;;7.18;3.60;;;13.00;99.90;;;;;;6208370;23;20013;-82
2022/11/16 12:23:38;;;;;;;9.88;2.63;;;13.00;99.90;;;;;;6208031;23;20013;-81
2022/11/16 12:26:06;;;;;;;7.13;2.63;;;13.00;99.90;;;;;;6211346;23;20048;-91
2022/11/16 12:28:55;;;;;;;8.55;3.55;;;13.10;99.90;;;;;;6212677;23;20028;-93
2022/11/16 12:31:35;;;;;;;7.07;2.85;;;13.10;99.90;;;;;;6214277;23;20082;-89
2022/11/16 12:34:18;;;;;;;9.27;3.20;;;13.20;99.90;;;;;;6215365;23;20027;-92
2022/11/16 12:37:06;;;;;;;7.80;2.80;;;13.30;99.90;;;;;;6216493;23;20027;-91
2022/11/16 12:40:07;;;;;;;8.00;3.25;;;13.30;99.90;;;;;;6217618;23;20112;-91
2022/11/16 12:42:51;;;;;;;7.13;2.88;;;13.30;99.90;;;;;;6189591;23;20016;-90
2022/11/16 12:45:43;;;;;;;9.18;2.85;;;13.20;99.90;;;;;;6214615;23;20013;-91
2022/11/16 12:48:35;;;;;;;9.93;2.50;;;13.00;99.90;;;;;;6215977;23;20013;-90
2022/11/16 12:51:09;;;;;;;8.75;2.55;;;12.90;99.90;;;;;;6215870;23;20016;-91
2022/11/16 12:53:42;;;;;;;;;;;12.80;99.90;;;;;;6213559;23;20016;-88
2022/11/16 12:56:26;;;;;;;10.15;2.60;;;12.80;99.90;;;;;;6240501;23;20192;-89
2022/11/16 12:59:29;;;;;;;8.90;2.30;;;12.70;99.90;;;;;;6244693;23;20444;-89
2022/11/16 13:01:55;;;;;;;5.30;2.08;;;12.70;99.90;;;;;;6212149;23;20344;-89
2022/11/16 13:04:32;;;;;;;6.40;2.05;;;12.70;99.90;;;;;;6218063;23;20013;-89
2022/11/16 13:07:21;;;;;;;7.78;2.00;;;12.60;99.90;;;;;;6243065;23;20008;-90
2022/11/16 13:09:57;;;;;;;13.80;3.22;;;12.60;99.90;;;;;;6244869;23;20035;-89
2022/11/16 13:12:25;;;;;;;8.55;1.90;;;12.50;99.90;;;;;;6241510;23;20020;-85
2022/11/16 13:14:54;;;;;;;7.40;1.77;;;12.40;99.90;;;;;;6242967;23;20051;-89
2022/11/16 13:17:27;;;;;;;7.45;2.05;;;12.40;99.90;;;;;;6246373;23;20024;-87
2022/11/16 13:20:11;;;;;;;6.90;2.40;;;12.30;99.90;;;;;;6243733;23;20043;-88
2022/11/16 13:22:39;;;;;;;7.13;1.67;;;12.20;99.90;;;;;;6242917;23;20059;-89
2022/11/16 13:25:46;;;;;;;7.97;2.13;;;12.20;99.90;;;;;;6242592;23;20407;-88
2022/11/16 13:28:45;;;;;;;11.32;2.00;;;12.20;99.90;;;;;;6221874;23;20016;-89
2022/11/16 13:31:32;;;;;;;7.97;2.00;;;12.10;99.90;;;;;;6243701;23;20016;-88